Time;durP1;ratioP1;P1;durP2;ratioP2;P2;SDS_P1;SDS_P2;PMS_P1;PMS_P2;Temp;Humidity;BMP_temperature;BMP_pressure;BME280_temperature;BME280_humidity;BME280_pressure;Samples;Min_cycle;Max_cycle;Signal;HPM_P1;HPM_P2
2022/04/28 00:01:41;;;;;;;6.10;3.45;;;11.90;99.90;;;;;;4977750;29;20117;-95
2022/04/28 00:04:28;;;;;;;6.00;4.10;;;12.00;99.90;;;;;;4960686;29;20019;-95
2022/04/28 00:06:54;;;;;;;6.13;3.97;;;11.90;99.90;;;;;;4961398;29;20039;-95
2022/04/28 00:09:23;;;;;;;6.88;3.72;;;11.90;99.90;;;;;;4945048;29;20039;-96
2022/04/28 00:11:51;;;;;;;5.22;3.85;;;11.90;99.90;;;;;;4977669;29;20019;-96
2022/04/28 00:14:20;;;;;;;4.68;3.70;;;11.90;99.90;;;;;;4960321;29;20059;-96
2022/04/28 00:16:48;;;;;;;5.07;3.72;;;11.90;99.90;;;;;;4958509;29;20023;-95
2022/04/28 00:19:16;;;;;;;8.68;4.18;;;11.90;99.90;;;;;;4958947;29;20023;-96
2022/04/28 00:21:45;;;;;;;4.55;3.72;;;11.90;99.90;;;;;;4942685;29;20039;-96
2022/04/28 00:24:11;;;;;;;5.47;3.95;;;11.90;99.90;;;;;;4976621;29;20031;-95
2022/04/28 00:26:48;;;;;;;8.75;3.92;;;11.90;99.90;;;;;;4959958;29;20027;-95
2022/04/28 00:29:18;;;;;;;4.90;3.58;;;11.90;99.90;;;;;;4955321;29;20336;-96
2022/04/28 00:31:45;;;;;;;6.15;3.50;;;11.90;99.90;;;;;;4939338;29;20027;-95
2022/04/28 05:32:23;;;;;;;10.80;4.45;;;11.00;99.90;;;;;;6068032;22;1526996;-95
2022/04/28 05:34:49;;;;;;;5.68;4.05;;;11.00;99.90;;;;;;6107447;23;20083;-95
2022/04/28 05:37:15;;;;;;;5.13;4.00;;;11.00;99.90;;;;;;6107327;23;20009;-95
2022/04/28 05:39:42;;;;;;;5.53;4.30;;;11.00;99.90;;;;;;6107829;23;19998;-95
2022/04/28 05:42:09;;;;;;;5.53;4.13;;;11.00;99.90;;;;;;6103728;23;20002;-95
2022/04/28 05:47:26;;;;;;;5.43;4.18;;;11.00;99.90;;;;;;6104345;23;20017;-94
2022/04/28 05:49:53;;;;;;;6.00;4.13;;;11.00;99.90;;;;;;6102998;23;20026;-94
2022/04/28 05:52:19;;;;;;;7.95;4.00;;;11.00;99.90;;;;;;6102548;23;19994;-93
2022/04/28 05:54:45;;;;;;;5.95;4.45;;;11.00;99.90;;;;;;6103528;23;20320;-93
2022/04/28 05:57:14;;;;;;;5.28;4.25;;;11.00;99.90;;;;;;6103593;23;20073;-93
2022/04/28 05:59:40;;;;;;;8.32;4.75;;;11.00;99.90;;;;;;6101220;23;20010;-95
2022/04/28 06:02:06;;;;;;;5.93;4.70;;;11.00;99.90;;;;;;6100067;23;20097;-94
2022/04/28 06:04:32;;;;;;;6.22;4.60;;;11.00;99.90;;;;;;6098994;23;20066;-95
2022/04/28 06:06:58;;;;;;;6.90;4.70;;;11.00;99.90;;;;;;6098230;23;20059;-93
2022/04/28 06:09:23;;;;;;;6.35;4.05;;;11.00;99.90;;;;;;6094895;23;20089;-94
2022/04/28 06:11:49;;;;;;;4.90;4.40;;;11.00;99.90;;;;;;6094720;23;20017;-93
2022/04/28 06:14:15;;;;;;;5.22;4.40;;;11.00;99.90;;;;;;6094450;23;20002;-94
2022/04/28 06:16:41;;;;;;;5.68;4.22;;;11.00;99.90;;;;;;6095067;23;20089;-92
2022/04/28 06:19:07;;;;;;;4.65;3.90;;;11.10;99.90;;;;;;6094205;23;20002;-92
2022/04/28 06:21:33;;;;;;;6.20;4.82;;;11.00;99.90;;;;;;6093811;23;20080;-91
2022/04/28 06:23:58;;;;;;;7.00;4.30;;;11.10;99.90;;;;;;6094371;23;20007;-93
2022/04/28 06:26:24;;;;;;;4.85;4.15;;;11.10;99.90;;;;;;6094870;23;20006;-93
2022/04/28 06:28:50;;;;;;;5.95;4.30;;;11.10;99.90;;;;;;6094242;23;20088;-92
2022/04/28 06:31:15;;;;;;;4.53;4.03;;;11.10;99.90;;;;;;6095005;23;20409;-93
2022/04/28 06:33:41;;;;;;;6.85;4.65;;;11.10;99.90;;;;;;6094498;23;20017;-92
2022/04/28 06:36:07;;;;;;;5.78;4.30;;;11.10;99.90;;;;;;6094126;23;20094;-93
2022/04/28 06:38:33;;;;;;;7.07;4.22;;;11.10;99.90;;;;;;6093986;23;20006;-92
2022/04/28 06:40:58;;;;;;;7.35;4.38;;;11.10;99.90;;;;;;6093946;23;20339;-93
2022/04/28 06:43:24;;;;;;;5.18;4.20;;;11.10;99.90;;;;;;6098526;23;20006;-91
2022/04/28 06:48:34;;;;;;;6.35;4.57;;;11.10;99.90;;;;;;6095215;23;20338;-92
2022/04/28 06:51:00;;;;;;;5.15;4.20;;;11.10;99.90;;;;;;6093665;23;20015;-92
2022/04/28 06:53:25;;;;;;;7.35;4.70;;;11.10;99.90;;;;;;6093522;23;20014;-91
2022/04/28 06:55:51;;;;;;;5.32;4.22;;;11.20;99.90;;;;;;6094121;23;20029;-92
2022/04/28 06:58:17;;;;;;;6.32;4.38;;;11.20;99.90;;;;;;6093453;23;20030;-92
2022/04/28 07:00:43;;;;;;;6.85;4.72;;;11.20;99.90;;;;;;6093514;23;20038;-91
2022/04/28 07:03:09;;;;;;;6.72;4.57;;;11.20;99.90;;;;;;6093300;23;20006;-92
2022/04/28 07:05:39;;;;;;;7.90;4.70;;;11.20;99.90;;;;;;6093787;23;20013;-92
2022/04/28 07:08:05;;;;;;;6.15;4.68;;;11.20;99.90;;;;;;6093097;23;20089;-91
2022/04/28 07:10:31;;;;;;;9.60;5.00;;;11.30;99.90;;;;;;6093751;23;20038;-92
2022/04/28 07:12:57;;;;;;;7.45;5.13;;;11.30;99.90;;;;;;6093325;23;20334;-91
2022/04/28 07:15:22;;;;;;;5.82;4.90;;;11.30;99.90;;;;;;6093159;23;20492;-92
2022/04/28 07:17:48;;;;;;;6.55;5.50;;;11.30;99.90;;;;;;6093458;23;19999;-91
2022/04/28 07:20:14;;;;;;;7.75;5.18;;;11.30;99.90;;;;;;6093256;23;20003;-92
2022/04/28 07:22:40;;;;;;;6.03;4.95;;;11.40;99.90;;;;;;6093167;23;20016;-91
2022/04/28 07:25:06;;;;;;;6.65;4.93;;;11.40;99.90;;;;;;6093102;23;20007;-91
2022/04/28 07:27:32;;;;;;;6.82;4.57;;;11.40;99.90;;;;;;6093270;23;20033;-92
2022/04/28 07:29:57;;;;;;;6.72;5.13;;;11.40;99.90;;;;;;6093580;23;20003;-87
2022/04/28 07:32:23;;;;;;;7.20;5.03;;;11.40;99.90;;;;;;6092138;23;20045;-89
2022/04/28 07:34:49;;;;;;;6.00;4.50;;;11.50;99.90;;;;;;6092124;23;20013;-89
2022/04/28 07:37:14;;;;;;;7.65;4.97;;;11.50;99.90;;;;;;6092461;23;20416;-89
2022/04/28 07:39:40;;;;;;;11.80;5.10;;;11.50;99.90;;;;;;6093012;23;20064;-90
2022/04/28 07:42:06;;;;;;;7.13;4.65;;;11.50;99.90;;;;;;6092778;23;20014;-89
2022/04/28 07:44:32;;;;;;;5.65;4.93;;;11.60;99.90;;;;;;6092201;23;20014;-89
2022/04/28 07:46:57;;;;;;;5.78;3.95;;;11.60;99.90;;;;;;6092385;23;20006;-89
2022/04/28 07:49:24;;;;;;;5.07;3.95;;;11.60;99.90;;;;;;6092953;23;20006;-90
2022/04/28 07:51:50;;;;;;;6.30;4.30;;;11.70;99.90;;;;;;6092095;23;20011;-89
2022/04/28 07:54:16;;;;;;;6.30;4.03;;;11.70;99.90;;;;;;6092561;23;20097;-88
2022/04/28 07:56:44;;;;;;;7.03;4.20;;;11.70;99.90;;;;;;6092014;23;20007;-88
2022/04/28 07:59:10;;;;;;;6.07;3.78;;;11.70;99.90;;;;;;6091609;23;20003;-88
2022/04/28 08:01:36;;;;;;;4.78;3.88;;;11.70;99.90;;;;;;6092290;23;20033;-89
2022/04/28 08:04:02;;;;;;;5.93;3.92;;;11.80;99.90;;;;;;6092235;23;20038;-88
2022/04/28 08:06:28;;;;;;;5.40;3.72;;;11.80;99.90;;;;;;6091754;23;20002;-89
2022/04/28 08:08:53;;;;;;;7.93;3.53;;;11.80;99.90;;;;;;6092985;23;20020;-89
2022/04/28 08:11:19;;;;;;;4.95;3.92;;;11.90;99.90;;;;;;6093107;23;20441;-88
2022/04/28 08:13:45;;;;;;;6.97;3.47;;;11.90;99.90;;;;;;6093081;23;20077;-88
2022/04/28 08:16:10;;;;;;;4.38;3.38;;;12.00;99.90;;;;;;6091717;23;20443;-88
2022/04/28 08:18:37;;;;;;;5.22;3.58;;;12.00;99.90;;;;;;6091844;23;20430;-88
2022/04/28 08:21:04;;;;;;;5.35;3.42;;;12.00;99.90;;;;;;6091939;23;20029;-88
2022/04/28 08:23:29;;;;;;;4.32;3.17;;;12.00;99.90;;;;;;6092478;23;20007;-88
2022/04/28 08:25:55;;;;;;;5.70;3.85;;;12.10;99.90;;;;;;6093585;23;20007;-88
2022/04/28 08:28:21;;;;;;;7.88;3.45;;;12.20;99.90;;;;;;6093243;23;20056;-88
2022/04/28 08:30:47;;;;;;;11.60;4.40;;;13.00;99.90;;;;;;6071161;23;20024;-91
2022/04/28 08:33:13;;;;;;;7.03;3.95;;;13.40;99.90;;;;;;6091673;23;20093;-88
2022/04/28 08:35:38;;;;;;;8.35;4.13;;;13.20;99.90;;;;;;6092440;23;20423;-89
2022/04/28 08:38:04;;;;;;;10.18;3.70;;;13.10;99.90;;;;;;6092181;23;20003;-88
2022/04/28 08:40:31;;;;;;;6.72;3.67;;;12.90;99.90;;;;;;6092138;23;20049;-88
2022/04/28 08:43:01;;;;;;;7.68;3.38;;;12.80;99.90;;;;;;6093080;23;19998;-88
2022/04/28 08:45:31;;;;;;;6.25;3.53;;;12.70;99.90;;;;;;6092451;23;20062;-91
2022/04/28 08:47:58;;;;;;;5.78;3.40;;;12.70;99.90;;;;;;6068465;23;20037;-88
2022/04/28 08:50:25;;;;;;;4.68;3.47;;;12.60;99.90;;;;;;6091596;23;20010;-89
2022/04/28 08:52:53;;;;;;;6.43;3.13;;;12.60;99.90;;;;;;6092130;23;20014;-88
2022/04/28 08:55:20;;;;;;;5.15;3.20;;;12.60;99.90;;;;;;6092510;23;20003;-88
2022/04/28 08:57:46;;;;;;;5.35;3.10;;;12.60;99.90;;;;;;6092425;23;20090;-88
2022/04/28 09:00:12;;;;;;;4.28;3.22;;;12.60;99.90;;;;;;6092389;23;20030;-86
2022/04/28 09:02:39;;;;;;;4.50;2.92;;;12.60;99.90;;;;;;6092629;23;20013;-88
2022/04/28 09:05:08;;;;;;;5.43;3.15;;;12.60;99.90;;;;;;6092781;23;20441;-90
2022/04/28 09:07:39;;;;;;;7.78;2.83;;;12.70;99.90;;;;;;6093203;23;20333;-87
2022/04/28 09:10:29;;;;;;;4.35;2.97;;;12.70;99.90;;;;;;6092293;23;20384;-87
2022/04/28 09:15:48;;;;;;;5.45;2.75;;;12.70;99.90;;;;;;6094008;23;20133;-88
2022/04/28 09:18:15;;;;;;;5.00;2.90;;;12.70;99.90;;;;;;6092798;23;20010;-87
2022/04/28 09:20:42;;;;;;;3.42;2.42;;;12.70;99.90;;;;;;6094290;23;20413;-86
2022/04/28 09:23:10;;;;;;;6.35;2.80;;;12.80;99.90;;;;;;6093688;23;20413;-89
2022/04/28 09:25:35;;;;;;;4.78;2.38;;;12.80;99.90;;;;;;6092363;23;20006;-87
2022/04/28 09:28:03;;;;;;;3.63;2.50;;;12.90;99.90;;;;;;6092261;23;20397;-87
2022/04/28 09:30:43;;;;;;;8.48;2.50;;;12.90;99.90;;;;;;6092277;23;20003;-88
2022/04/28 09:33:14;;;;;;;4.15;2.60;;;12.90;99.90;;;;;;6092075;23;20073;-88
2022/04/28 09:35:47;;;;;;;3.25;2.38;;;12.90;99.90;;;;;;6092656;23;20003;-87
2022/04/28 09:38:13;;;;;;;3.47;2.40;;;13.00;99.90;;;;;;6092358;23;20071;-87
2022/04/28 09:43:24;;;;;;;5.22;2.60;;;13.10;99.90;;;;;;6094017;23;20109;-88
2022/04/28 09:45:50;;;;;;;3.83;2.40;;;13.10;99.90;;;;;;6093015;23;20013;-87
2022/04/28 09:48:17;;;;;;;4.13;2.30;;;13.10;99.90;;;;;;6092186;23;20007;-87
2022/04/28 09:50:43;;;;;;;3.58;2.20;;;13.10;99.90;;;;;;6092627;23;20010;-88
2022/04/28 09:53:09;;;;;;;4.38;2.20;;;13.10;99.90;;;;;;6092057;23;20052;-88
2022/04/28 09:55:35;;;;;;;3.63;2.40;;;13.10;99.90;;;;;;6092176;23;20003;-87
2022/04/28 09:58:09;;;;;;;3.50;2.13;;;13.20;99.90;;;;;;6092565;23;20003;-87
2022/04/28 10:00:35;;;;;;;4.50;2.55;;;13.20;99.90;;;;;;6092553;23;20008;-90
2022/04/28 10:03:05;;;;;;;4.78;2.80;;;13.20;99.90;;;;;;6068194;23;20014;-88
2022/04/28 10:05:31;;;;;;;3.67;2.17;;;13.30;99.90;;;;;;6092755;23;20014;-87
2022/04/28 10:07:57;;;;;;;2.92;2.15;;;13.30;99.90;;;;;;6092522;23;20334;-87
2022/04/28 10:10:26;;;;;;;3.30;2.35;;;13.30;99.90;;;;;;6092122;23;20017;-86
2022/04/28 10:12:55;;;;;;;4.47;2.63;;;13.30;99.90;;;;;;6091983;23;20311;-86
2022/04/28 10:15:22;;;;;;;3.30;1.98;;;13.40;99.90;;;;;;6092060;23;20327;-88
2022/04/28 10:17:53;;;;;;;3.92;2.20;;;13.40;99.90;;;;;;6092667;23;20395;-86
2022/04/28 10:20:35;;;;;;;4.22;1.92;;;13.40;99.90;;;;;;6093011;23;20319;-87
2022/04/28 10:23:05;;;;;;;3.45;2.17;;;13.40;99.90;;;;;;6092122;23;20041;-88
2022/04/28 10:34:16;;;;;;;4.00;2.45;;;13.50;99.90;;;;;;6228088;23;20371;-86
2022/04/28 10:37:01;;;;;;;3.22;2.30;;;13.50;99.90;;;;;;6220181;23;20328;-86
2022/04/28 10:39:39;;;;;;;3.63;2.08;;;13.50;99.90;;;;;;6220606;23;20004;-85
2022/04/28 10:42:13;;;;;;;3.55;2.25;;;13.60;99.90;;;;;;6220103;23;20007;-88
2022/04/28 10:44:51;;;;;;;7.53;2.40;;;13.70;99.90;;;;;;6220035;23;20009;-87
2022/04/28 10:47:23;;;;;;;4.47;2.55;;;13.70;99.90;;;;;;6220022;23;20094;-85
2022/04/28 10:49:53;;;;;;;4.50;2.38;;;13.70;99.90;;;;;;6220341;23;20011;-88
2022/04/28 10:52:23;;;;;;;4.45;2.45;;;13.70;99.90;;;;;;6219842;23;20008;-85
2022/04/28 10:55:01;;;;;;;4.38;2.00;;;13.70;99.90;;;;;;6220230;23;20026;-87
2022/04/28 10:57:36;;;;;;;3.72;2.22;;;13.70;99.90;;;;;;6220954;23;20431;-85
2022/04/28 11:00:04;;;;;;;4.57;2.55;;;13.70;99.90;;;;;;6219868;23;20095;-86
2022/04/28 11:02:35;;;;;;;4.68;2.40;;;13.80;99.90;;;;;;6219675;23;20000;-85
2022/04/28 11:05:05;;;;;;;2.90;2.28;;;13.80;99.90;;;;;;6219769;23;20027;-85
2022/04/28 11:07:32;;;;;;;2.72;2.13;;;13.80;99.90;;;;;;6219780;23;20000;-85
2022/04/28 11:10:03;;;;;;;3.40;2.47;;;13.80;99.90;;;;;;6219876;23;20008;-86
2022/04/28 11:12:38;;;;;;;5.20;2.10;;;13.80;99.90;;;;;;6220057;23;20001;-87
2022/04/28 11:15:06;;;;;;;;;;;13.90;99.90;;;;;;6220311;23;20340;-86
2022/04/28 11:17:37;;;;;;;5.57;2.22;;;13.90;99.90;;;;;;6246067;23;19936;-86
2022/04/28 11:20:11;;;;;;;2.50;2.00;;;14.00;99.90;;;;;;6219645;23;20005;-86
2022/04/28 11:22:42;;;;;;;4.00;2.35;;;14.00;99.90;;;;;;6219623;23;20000;-86
2022/04/28 11:25:13;;;;;;;3.47;2.30;;;14.00;99.90;;;;;;6220186;23;20087;-85
2022/04/28 11:27:39;;;;;;;4.05;2.45;;;14.00;99.90;;;;;;6220069;23;20424;-87
2022/04/28 11:30:07;;;;;;;5.03;2.72;;;14.00;99.90;;;;;;6246674;23;20071;-86
2022/04/28 11:32:32;;;;;;;3.40;2.30;;;14.00;99.90;;;;;;6182481;23;20015;-86
2022/04/28 11:34:59;;;;;;;3.30;2.15;;;14.00;99.90;;;;;;6092179;23;20006;-86
2022/04/28 11:37:26;;;;;;;4.72;2.60;;;14.00;99.90;;;;;;6091716;23;20002;-88
2022/04/28 11:39:54;;;;;;;5.70;2.20;;;14.00;99.90;;;;;;6091737;23;20033;-87
2022/04/28 11:42:21;;;;;;;5.63;2.15;;;14.10;99.90;;;;;;6092121;23;20007;-87
2022/04/28 11:44:56;;;;;;;2.75;2.17;;;14.10;99.90;;;;;;6091787;23;20010;-88
2022/04/28 11:47:24;;;;;;;4.72;2.45;;;14.10;99.90;;;;;;6093280;23;20307;-86
2022/04/28 11:49:57;;;;;;;5.80;2.33;;;14.20;99.90;;;;;;6091835;23;20006;-86
2022/04/28 11:52:25;;;;;;;5.03;2.35;;;14.10;99.90;;;;;;6091631;23;20002;-88
2022/04/28 11:55:03;;;;;;;5.07;2.50;;;14.20;99.90;;;;;;6092660;23;20379;-86
2022/04/28 11:57:30;;;;;;;3.63;2.53;;;14.10;99.90;;;;;;6091668;23;20032;-86
2022/04/28 11:59:57;;;;;;;4.20;2.20;;;14.20;99.90;;;;;;6092235;23;20304;-86
2022/04/28 12:02:34;;;;;;;3.58;2.15;;;14.20;99.90;;;;;;6091497;23;20056;-85
2022/04/28 12:05:02;;;;;;;2.45;2.00;;;14.20;99.90;;;;;;6091519;23;20003;-86
2022/04/28 12:07:37;;;;;;;2.78;2.10;;;14.20;99.90;;;;;;6091420;23;20053;-85
2022/04/28 12:15:33;;;;;;;3.40;2.20;;;14.20;99.90;;;;;;6093449;23;20045;-87
2022/04/28 12:20:57;;;;;;;3.72;2.20;;;14.40;99.90;;;;;;6093061;23;20430;-86
2022/04/28 12:23:33;;;;;;;3.03;1.85;;;14.40;99.90;;;;;;6091479;23;20086;-86
2022/04/28 12:26:00;;;;;;;4.40;2.30;;;14.40;99.90;;;;;;6091460;23;20438;-86
2022/04/28 12:28:34;;;;;;;3.88;2.20;;;14.50;99.90;;;;;;6091429;23;20057;-87
2022/04/28 12:31:02;;;;;;;3.08;2.03;;;14.60;99.90;;;;;;6067850;23;20430;-87
2022/04/28 12:33:33;;;;;;;3.80;2.10;;;14.70;99.90;;;;;;6091030;23;20021;-86
2022/04/28 12:35:59;;;;;;;4.22;2.05;;;14.80;99.90;;;;;;6091512;23;20007;-85
2022/04/28 12:38:27;;;;;;;3.72;2.00;;;14.90;99.90;;;;;;6091539;23;20009;-86
2022/04/28 12:40:53;;;;;;;2.45;1.80;;;14.90;99.90;;;;;;6093220;23;20078;-86
2022/04/28 12:44:00;;;;;;;7.13;2.22;;;14.90;99.90;;;;;;6091314;23;20101;-87
2022/04/28 12:46:38;;;;;;;3.75;2.20;;;15.00;99.90;;;;;;6128711;23;20040;-85
2022/04/28 12:49:05;;;;;;;3.38;1.73;;;15.10;99.90;;;;;;6098509;23;20006;-86
2022/04/28 12:51:42;;;;;;;3.63;2.30;;;15.20;99.90;;;;;;6092737;23;20017;-86
2022/04/28 12:54:09;;;;;;;3.75;1.75;;;15.30;99.90;;;;;;6091217;23;20006;-85
2022/04/28 12:56:36;;;;;;;4.97;1.65;;;15.40;99.90;;;;;;6091265;23;19998;-86
2022/04/28 12:59:07;;;;;;;4.20;1.95;;;15.60;99.90;;;;;;6091166;23;20009;-86
2022/04/28 13:01:34;;;;;;;2.20;1.50;;;15.70;99.90;;;;;;6067819;23;20010;-86
2022/04/28 13:04:10;;;;;;;2.67;1.98;;;15.80;99.90;;;;;;6091584;23;20330;-86
2022/04/28 13:06:38;;;;;;;2.75;1.83;;;15.90;99.90;;;;;;6092648;23;20007;-85
2022/04/28 13:09:07;;;;;;;2.50;1.60;;;16.00;99.90;;;;;;6092618;23;20006;-85
2022/04/28 13:11:39;;;;;;;4.93;1.60;;;16.00;99.90;;;;;;6091528;23;20033;-86
2022/04/28 13:14:06;;;;;;;5.05;1.83;;;16.00;99.80;;;;;;6090881;23;20013;-86
2022/04/28 13:16:32;;;;;;;2.90;1.90;;;16.10;99.60;;;;;;6092453;23;20307;-86
2022/04/28 13:18:58;;;;;;;2.58;1.73;;;16.10;99.90;;;;;;6092779;23;19995;-86
2022/04/28 13:21:25;;;;;;;2.42;1.80;;;16.10;99.60;;;;;;6090981;23;20033;-85
2022/04/28 13:23:51;;;;;;;2.28;1.83;;;16.10;99.50;;;;;;6090978;23;20006;-86
2022/04/28 13:26:19;;;;;;;3.85;2.10;;;16.10;99.50;;;;;;6090907;23;20430;-86
2022/04/28 13:28:46;;;;;;;3.28;1.90;;;16.10;99.70;;;;;;6092798;23;20373;-86
2022/04/28 13:31:12;;;;;;;2.42;1.77;;;16.10;99.60;;;;;;6091266;23;20006;-85
2022/04/28 13:33:39;;;;;;;2.42;1.80;;;16.10;99.60;;;;;;6090937;23;20389;-86
2022/04/28 13:36:06;;;;;;;2.58;1.85;;;16.10;99.60;;;;;;6090851;23;20002;-86
2022/04/28 13:38:32;;;;;;;2.42;1.80;;;16.10;99.60;;;;;;6090874;23;20458;-86
2022/04/28 13:40:58;;;;;;;3.83;1.98;;;16.00;99.70;;;;;;6067558;23;20018;-86
2022/04/28 13:43:24;;;;;;;3.45;2.05;;;16.10;99.60;;;;;;6092201;23;20438;-86
2022/04/28 13:45:50;;;;;;;2.38;1.80;;;16.10;99.60;;;;;;6093957;23;20002;-85
2022/04/28 13:48:19;;;;;;;2.88;1.95;;;16.10;99.50;;;;;;6093719;23;20077;-87
2022/04/28 13:50:46;;;;;;;5.07;2.10;;;16.10;99.60;;;;;;6092457;23;20030;-86
2022/04/28 13:53:13;;;;;;;3.20;2.03;;;16.10;99.60;;;;;;6092048;23;20033;-86
2022/04/28 13:55:39;;;;;;;3.35;2.03;;;16.10;99.60;;;;;;6092461;23;20208;-87
2022/04/28 13:58:06;;;;;;;2.97;1.95;;;16.10;99.60;;;;;;6092265;23;20034;-87
2022/04/28 14:00:32;;;;;;;3.65;1.80;;;16.10;99.60;;;;;;6092918;23;20006;-87
2022/04/28 14:02:58;;;;;;;7.00;2.03;;;16.30;99.30;;;;;;6092557;23;20041;-86
2022/04/28 14:05:26;;;;;;;5.15;1.83;;;16.30;99.40;;;;;;6092521;23;20006;-86
2022/04/28 14:07:52;;;;;;;3.60;1.83;;;16.20;99.40;;;;;;6093928;23;20111;-86
2022/04/28 14:10:18;;;;;;;3.47;1.90;;;16.10;99.40;;;;;;6092373;23;20008;-86
2022/04/28 14:12:44;;;;;;;3.67;2.10;;;16.00;99.40;;;;;;6093743;23;20077;-87
2022/04/28 14:15:10;;;;;;;2.45;1.50;;;16.00;99.40;;;;;;6093043;23;20034;-86
2022/04/28 14:17:38;;;;;;;2.45;1.90;;;16.00;99.40;;;;;;6093071;23;20426;-86
2022/04/28 14:20:06;;;;;;;3.78;1.77;;;16.00;99.50;;;;;;6093036;23;20010;-86
2022/04/28 14:22:32;;;;;;;1.92;1.70;;;16.00;99.60;;;;;;6092160;23;19999;-86
2022/04/28 14:24:58;;;;;;;3.05;1.90;;;15.90;99.70;;;;;;6092347;23;20006;-87
2022/04/28 14:27:24;;;;;;;4.10;2.00;;;16.00;99.70;;;;;;6093475;23;20326;-87
2022/04/28 14:29:51;;;;;;;2.33;1.73;;;16.00;99.50;;;;;;6092256;23;20090;-88
2022/04/28 14:32:17;;;;;;;2.20;1.80;;;16.20;99.30;;;;;;6100073;23;20009;-87
2022/04/28 14:34:43;;;;;;;3.38;1.88;;;16.10;99.20;;;;;;6221611;23;20004;-88
2022/04/28 14:37:09;;;;;;;3.70;1.90;;;16.10;99.30;;;;;;6220809;23;20000;-87
2022/04/28 14:39:35;;;;;;;3.03;2.40;;;16.00;99.40;;;;;;6220764;23;20000;-87
2022/04/28 14:42:03;;;;;;;2.97;2.00;;;15.90;99.60;;;;;;6220869;23;20008;-87
2022/04/28 14:44:32;;;;;;;2.85;1.83;;;15.90;99.50;;;;;;6195632;23;20095;-88
2022/04/28 14:46:58;;;;;;;3.00;1.80;;;15.90;99.50;;;;;;6247396;23;20005;-87
2022/04/28 14:52:27;;;;;;;;;;;15.70;99.90;;;;;;6248054;23;20340;-89
2022/04/28 14:54:57;;;;;;;3.70;2.27;;;15.50;99.90;;;;;;6221369;23;19904;-89
2022/04/28 14:57:38;;;;;;;4.05;2.10;;;15.30;99.90;;;;;;6246875;23;20000;-87
2022/04/28 15:00:07;;;;;;;4.00;1.92;;;15.20;99.90;;;;;;6221263;23;20000;-87
2022/04/28 15:02:32;;;;;;;3.47;2.30;;;15.10;99.90;;;;;;6219785;23;20024;-87
2022/04/28 15:04:58;;;;;;;3.25;2.05;;;15.00;99.90;;;;;;6246753;23;20371;-87
2022/04/28 15:07:24;;;;;;;3.25;2.10;;;14.90;99.90;;;;;;6219827;23;20004;-88
2022/04/28 15:09:50;;;;;;;3.47;2.10;;;14.90;99.90;;;;;;6220359;23;20513;-87
2022/04/28 15:12:16;;;;;;;5.00;2.00;;;14.90;99.90;;;;;;6220218;23;20014;-87
2022/04/28 15:14:42;;;;;;;8.63;2.45;;;14.80;99.90;;;;;;6220530;23;20343;-89
2022/04/28 15:17:10;;;;;;;4.50;2.20;;;14.80;99.90;;;;;;6220564;23;20007;-86
2022/04/28 15:19:36;;;;;;;2.55;1.92;;;14.80;99.90;;;;;;6220003;23;20000;-87
2022/04/28 15:22:04;;;;;;;4.22;2.55;;;14.80;99.90;;;;;;6220218;23;20004;-88
2022/04/28 15:24:29;;;;;;;5.35;2.10;;;14.80;99.90;;;;;;6247165;23;20004;-87
2022/04/28 15:26:55;;;;;;;2.75;2.05;;;14.80;99.90;;;;;;6221219;23;20324;-87
2022/04/28 15:29:21;;;;;;;3.78;2.10;;;14.70;99.90;;;;;;6219736;23;20095;-88
2022/04/28 15:31:47;;;;;;;3.80;2.30;;;14.70;99.90;;;;;;6220282;23;20004;-87
2022/04/28 15:34:14;;;;;;;5.10;2.28;;;14.70;99.90;;;;;;6247116;23;20054;-87
2022/04/28 15:36:40;;;;;;;3.20;2.28;;;14.70;99.90;;;;;;6221470;23;20004;-87
2022/04/28 15:39:07;;;;;;;2.40;2.15;;;14.70;99.90;;;;;;6246725;23;19992;-88
2022/04/28 15:41:37;;;;;;;4.75;2.15;;;14.70;99.90;;;;;;6220141;23;20007;-88
2022/04/28 15:44:09;;;;;;;3.03;1.90;;;14.70;99.90;;;;;;6221414;23;20408;-88
2022/04/28 15:46:35;;;;;;;3.90;2.28;;;14.70;99.90;;;;;;6246517;23;20313;-89
2022/04/28 15:49:03;;;;;;;3.47;2.13;;;14.70;99.90;;;;;;6220075;23;20388;-89
2022/04/28 15:51:28;;;;;;;2.67;2.28;;;14.70;99.90;;;;;;6220104;23;20383;-87
2022/04/28 15:53:54;;;;;;;5.40;2.30;;;14.70;99.90;;;;;;6219437;23;20012;-88
2022/04/28 15:56:22;;;;;;;3.33;2.13;;;14.70;99.90;;;;;;6219476;23;20083;-88
2022/04/28 15:58:49;;;;;;;2.60;2.10;;;14.70;99.90;;;;;;6219884;23;20008;-89
2022/04/28 16:01:16;;;;;;;3.55;2.17;;;14.80;99.90;;;;;;6247104;23;20003;-90
2022/04/28 16:03:42;;;;;;;4.35;2.10;;;14.90;99.90;;;;;;6219675;23;20062;-88
2022/04/28 16:06:08;;;;;;;2.78;2.03;;;14.90;99.90;;;;;;6219509;23;20083;-89
2022/04/28 16:08:33;;;;;;;6.55;2.28;;;14.90;99.90;;;;;;6220200;23;20035;-88
2022/04/28 16:11:01;;;;;;;4.25;2.05;;;14.80;99.90;;;;;;6219505;23;20030;-88
2022/04/28 16:13:27;;;;;;;5.10;2.17;;;14.80;99.90;;;;;;6219243;23;20344;-88
2022/04/28 16:15:53;;;;;;;4.35;2.00;;;14.80;99.90;;;;;;6219679;23;20000;-89
2022/04/28 16:18:18;;;;;;;3.75;2.17;;;14.80;99.90;;;;;;6220630;23;20055;-88
2022/04/28 16:20:45;;;;;;;3.38;2.13;;;14.80;99.90;;;;;;6219730;23;20087;-89
2022/04/28 16:23:11;;;;;;;3.20;2.22;;;14.80;99.90;;;;;;6220428;23;20443;-89
2022/04/28 16:25:38;;;;;;;2.97;2.22;;;14.80;99.90;;;;;;6219816;23;20061;-89
2022/04/28 16:28:09;;;;;;;5.25;2.28;;;14.80;99.90;;;;;;6220204;23;20408;-88
2022/04/28 16:30:36;;;;;;;2.58;2.05;;;14.70;99.90;;;;;;6219531;23;20008;-88
2022/04/28 16:33:03;;;;;;;3.67;2.10;;;14.80;99.90;;;;;;6171353;23;20025;-89
2022/04/28 16:35:29;;;;;;;5.63;1.92;;;14.80;99.90;;;;;;6094889;23;20003;-89
2022/04/28 16:37:58;;;;;;;4.35;2.10;;;16.20;97.30;;;;;;6091802;23;20024;-89
2022/04/28 16:40:24;;;;;;;3.38;2.13;;;17.00;98.90;;;;;;6091902;23;20032;-91
2022/04/28 16:42:50;;;;;;;2.78;1.70;;;17.70;98.30;;;;;;6092251;23;20014;-90
2022/04/28 16:45:17;;;;;;;2.30;1.73;;;18.10;97.70;;;;;;6092280;23;20010;-90
2022/04/28 16:47:44;;;;;;;3.63;1.88;;;18.40;97.40;;;;;;6091815;23;20007;-90
2022/04/28 16:50:10;;;;;;;3.50;1.90;;;18.60;97.00;;;;;;6093001;23;19999;-90
2022/04/28 16:52:37;;;;;;;3.72;1.90;;;18.80;96.80;;;;;;6091759;23;20426;-91
2022/04/28 16:55:04;;;;;;;3.05;1.60;;;18.90;96.70;;;;;;6092717;23;20006;-90
2022/04/28 16:57:29;;;;;;;3.78;1.92;;;19.00;96.60;;;;;;6091465;23;20381;-89
2022/04/28 16:59:55;;;;;;;3.03;1.75;;;19.10;96.40;;;;;;6092014;23;20038;-90
2022/04/28 17:02:23;;;;;;;2.85;1.65;;;19.10;96.30;;;;;;6092520;23;20052;-90
2022/04/28 17:04:50;;;;;;;3.13;1.98;;;19.20;96.30;;;;;;6092120;23;20336;-91
2022/04/28 17:07:16;;;;;;;3.60;1.90;;;19.20;96.20;;;;;;6091871;23;20010;-90
2022/04/28 17:09:43;;;;;;;4.55;1.83;;;19.20;96.00;;;;;;6092233;23;20006;-91
2022/04/28 17:12:10;;;;;;;5.35;1.95;;;19.20;96.00;;;;;;6091805;23;20390;-90
2022/04/28 17:14:36;;;;;;;2.70;1.65;;;19.20;96.00;;;;;;6091754;23;20010;-90
2022/04/28 17:17:04;;;;;;;3.53;1.83;;;19.30;96.00;;;;;;6092613;23;20007;-90
2022/04/28 17:19:30;;;;;;;2.33;1.95;;;19.20;96.00;;;;;;6093529;23;20358;-90
2022/04/28 17:21:58;;;;;;;2.78;1.52;;;19.30;96.10;;;;;;6092594;23;20071;-90
2022/04/28 17:24:24;;;;;;;2.53;1.70;;;19.30;96.10;;;;;;6092833;23;20011;-90
2022/04/28 17:26:51;;;;;;;3.22;1.50;;;19.30;96.10;;;;;;6092800;23;20007;-90
2022/04/28 17:29:19;;;;;;;2.72;1.70;;;19.30;96.20;;;;;;6094276;23;20377;-90
2022/04/28 17:31:45;;;;;;;4.13;1.85;;;19.20;96.10;;;;;;6092747;23;20015;-90
2022/04/28 17:34:11;;;;;;;2.00;1.48;;;19.20;96.10;;;;;;6092634;23;20026;-90
2022/04/28 17:36:41;;;;;;;3.03;1.65;;;19.20;96.20;;;;;;6093544;23;20003;-90
2022/04/28 17:39:08;;;;;;;2.03;1.73;;;19.20;96.30;;;;;;6092895;23;20006;-90
2022/04/28 17:41:34;;;;;;;1.88;1.60;;;19.10;96.20;;;;;;6093078;23;20002;-90
2022/04/28 17:44:03;;;;;;;4.63;1.60;;;19.10;96.30;;;;;;6092953;23;20010;-90
2022/04/28 17:46:29;;;;;;;2.17;1.67;;;19.10;96.30;;;;;;6093553;23;20093;-90
2022/04/28 17:48:55;;;;;;;3.13;1.40;;;19.10;96.20;;;;;;6093675;23;20037;-91
2022/04/28 17:51:21;;;;;;;2.67;1.85;;;19.00;96.30;;;;;;6093619;23;20025;-90
2022/04/28 17:53:50;;;;;;;3.97;1.95;;;19.00;96.40;;;;;;6092720;23;20003;-90
2022/04/28 18:01:44;;;;;;;3.17;1.70;;;18.90;96.40;;;;;;6094348;23;20009;-90
2022/04/28 18:04:13;;;;;;;1.58;1.40;;;18.90;96.60;;;;;;6092965;23;20011;-90
2022/04/28 18:06:39;;;;;;;2.38;1.38;;;18.90;96.60;;;;;;6092806;23;20013;-90
2022/04/28 18:09:05;;;;;;;1.92;1.20;;;18.80;96.60;;;;;;6092858;23;20011;-90
2022/04/28 18:11:31;;;;;;;4.30;1.52;;;18.80;96.70;;;;;;6100510;23;20501;-90
2022/04/28 18:13:57;;;;;;;2.03;1.48;;;18.70;96.80;;;;;;6100789;23;20011;-90
2022/04/28 18:16:25;;;;;;;1.88;1.50;;;18.70;96.80;;;;;;6099235;23;20006;-90
2022/04/28 18:18:54;;;;;;;2.70;1.58;;;18.70;96.80;;;;;;6097162;23;19998;-90
2022/04/28 18:21:20;;;;;;;3.15;1.55;;;18.60;97.20;;;;;;6097566;23;20093;-91
2022/04/28 18:23:48;;;;;;;2.15;1.55;;;18.60;96.90;;;;;;6096209;23;20497;-91
2022/04/28 18:26:18;;;;;;;2.40;1.55;;;18.50;97.00;;;;;;6096495;23;20015;-91